Time;durP1;ratioP1;P1;durP2;ratioP2;P2;SDS_P1;SDS_P2;PMS_P1;PMS_P2;Temp;Humidity;BMP_temperature;BMP_pressure;BME280_temperature;BME280_humidity;BME280_pressure;Samples;Min_cycle;Max_cycle;Signal;HPM_P1;HPM_P2
2024/03/13 00:01:50;;;;;;;0.77;0.50;;;10.80;84.20;;;;;;5098862;28;20085;-80
2024/03/13 00:04:17;;;;;;;1.77;0.60;;;10.50;87.30;;;;;;5100396;28;20039;-80
2024/03/13 00:06:43;;;;;;;1.52;0.30;;;10.50;86.10;;;;;;5100595;28;20351;-80
2024/03/13 00:09:09;;;;;;;2.33;0.52;;;10.30;87.50;;;;;;5100615;28;20027;-80
2024/03/13 00:11:35;;;;;;;3.00;0.68;;;10.40;87.50;;;;;;5100500;28;20043;-80
2024/03/13 00:14:02;;;;;;;1.33;0.50;;;10.40;85.80;;;;;;5099037;28;20032;-80
2024/03/13 00:16:31;;;;;;;2.90;0.80;;;10.50;85.70;;;;;;5098858;28;20063;-80
2024/03/13 00:18:57;;;;;;;2.55;0.57;;;10.30;87.80;;;;;;5102474;28;20071;-80
2024/03/13 00:21:25;;;;;;;1.08;0.50;;;10.40;86.00;;;;;;5101210;28;20802;-80
2024/03/13 00:23:52;;;;;;;2.42;0.60;;;10.50;85.90;;;;;;5101839;28;20114;-80
2024/03/13 00:26:21;;;;;;;1.42;0.50;;;10.60;85.60;;;;;;5101590;28;20036;-80
2024/03/13 00:28:48;;;;;;;0.22;0.20;;;10.60;84.80;;;;;;5101121;28;20027;-80
2024/03/13 00:31:14;;;;;;;1.17;0.50;;;10.50;87.00;;;;;;5102139;28;20055;-80
2024/03/13 00:33:40;;;;;;;1.35;0.50;;;10.50;86.50;;;;;;5100932;28;20084;-80
2024/03/13 00:36:08;;;;;;;1.67;0.55;;;10.30;86.00;;;;;;5101879;28;20089;-80
2024/03/13 00:38:34;;;;;;;3.25;0.90;;;10.60;85.30;;;;;;5101102;28;20171;-80
2024/03/13 00:41:00;;;;;;;4.35;0.40;;;10.60;85.10;;;;;;5102028;28;20544;-80
2024/03/13 00:43:26;;;;;;;1.33;0.50;;;10.60;84.90;;;;;;5099767;28;20051;-80
2024/03/13 00:45:52;;;;;;;2.65;0.80;;;10.60;85.20;;;;;;5100934;28;20485;-80
2024/03/13 00:48:17;;;;;;;2.05;0.95;;;10.60;85.60;;;;;;5099664;28;20119;-80
2024/03/13 00:50:46;;;;;;;2.42;0.68;;;10.60;85.30;;;;;;5100910;28;20576;-80
2024/03/13 00:53:14;;;;;;;1.70;0.70;;;10.60;85.60;;;;;;5099354;28;20040;-80
2024/03/13 00:55:40;;;;;;;1.58;0.40;;;10.50;85.60;;;;;;5101152;28;20039;-80
2024/03/13 00:58:08;;;;;;;2.17;0.95;;;10.40;85.70;;;;;;5101699;28;20386;-80
2024/03/13 01:00:35;;;;;;;1.38;0.70;;;10.40;85.20;;;;;;5101667;28;20031;-80
2024/03/13 01:03:02;;;;;;;1.63;0.60;;;10.40;85.90;;;;;;5100897;28;20092;-80
2024/03/13 01:05:28;;;;;;;1.20;0.50;;;10.40;86.00;;;;;;5101049;28;20026;-80
2024/03/13 01:07:55;;;;;;;1.88;0.80;;;10.40;85.90;;;;;;5101508;28;20020;-80
2024/03/13 01:10:24;;;;;;;3.47;0.40;;;10.40;86.10;;;;;;5101497;28;20090;-80
2024/03/13 01:12:50;;;;;;;0.35;0.30;;;10.40;86.00;;;;;;5100227;28;20024;-80
2024/03/13 01:15:16;;;;;;;2.00;0.80;;;10.40;86.00;;;;;;5099500;28;20034;-80
2024/03/13 01:17:42;;;;;;;1.50;0.52;;;10.40;86.00;;;;;;5100635;28;20866;-80
2024/03/13 01:20:09;;;;;;;2.13;0.77;;;10.40;86.00;;;;;;5101197;28;20131;-78
2024/03/13 01:22:37;;;;;;;2.30;0.50;;;10.30;87.50;;;;;;5100792;28;20037;-78
2024/03/13 01:25:05;;;;;;;1.08;0.50;;;10.30;86.30;;;;;;5100175;27;20035;-79
2024/03/13 01:27:31;;;;;;;1.42;0.65;;;10.20;88.30;;;;;;5098386;28;20123;-79
2024/03/13 01:29:56;;;;;;;2.67;0.60;;;10.10;88.80;;;;;;5099585;28;20046;-79
2024/03/13 01:32:23;;;;;;;1.45;0.60;;;9.90;90.00;;;;;;5101064;28;20548;-79
2024/03/13 01:34:48;;;;;;;1.02;0.50;;;9.90;88.50;;;;;;5100804;28;20038;-78
2024/03/13 01:40:02;;;;;;;1.38;0.60;;;9.90;88.10;;;;;;5096733;28;20050;-79
2024/03/13 01:56:26;;;;;;;3.00;0.60;;;10.20;86.70;;;;;;5099372;28;20096;-81
2024/03/13 01:59:03;;;;;;;1.75;0.60;;;10.20;86.50;;;;;;5100196;28;20023;-81
2024/03/13 02:04:16;;;;;;;1.40;0.40;;;10.00;87.50;;;;;;5099907;28;20088;-81
2024/03/13 02:06:43;;;;;;;1.25;0.55;;;10.10;87.20;;;;;;5099004;28;20544;-81
2024/03/13 02:09:09;;;;;;;1.58;0.60;;;10.00;87.20;;;;;;5099466;28;20370;-81
2024/03/13 02:11:38;;;;;;;0.95;0.50;;;10.00;87.50;;;;;;5099336;28;20035;-81
2024/03/13 02:14:05;;;;;;;1.42;0.50;;;9.90;87.60;;;;;;5099125;28;20031;-81
2024/03/13 02:16:31;;;;;;;1.90;0.80;;;10.00;87.10;;;;;;5098668;28;20085;-81
2024/03/13 02:18:59;;;;;;;0.20;0.20;;;10.00;88.20;;;;;;5098883;28;21153;-80
2024/03/13 02:21:25;;;;;;;1.58;0.50;;;9.90;88.60;;;;;;5099562;28;20023;-81
2024/03/13 02:23:51;;;;;;;1.70;0.55;;;9.70;89.90;;;;;;5098088;28;20420;-81
2024/03/13 02:26:18;;;;;;;1.90;0.60;;;9.80;88.60;;;;;;5095436;28;20023;-81
2024/03/13 02:28:46;;;;;;;0.95;0.50;;;9.80;88.60;;;;;;5099940;28;20024;-81
2024/03/13 02:31:11;;;;;;;1.05;0.55;;;9.80;89.00;;;;;;5099184;28;20039;-81
2024/03/13 02:33:37;;;;;;;1.42;0.52;;;9.70;89.00;;;;;;5098916;28;20031;-78
2024/03/13 02:36:03;;;;;;;1.92;0.60;;;9.80;88.60;;;;;;5099087;28;20046;-78
2024/03/13 02:38:29;;;;;;;1.02;0.55;;;9.80;88.60;;;;;;5098083;28;20413;-78
2024/03/13 02:40:55;;;;;;;1.63;0.75;;;9.80;88.40;;;;;;5098788;28;20039;-78
2024/03/13 02:43:21;;;;;;;1.00;0.47;;;9.80;88.30;;;;;;5099603;28;20890;-78
2024/03/13 02:45:47;;;;;;;4.63;1.05;;;9.90;88.70;;;;;;5099078;28;20095;-79
2024/03/13 02:48:15;;;;;;;1.40;0.57;;;9.90;88.30;;;;;;5099485;28;20030;-79
2024/03/13 02:50:43;;;;;;;2.97;0.70;;;9.80;88.00;;;;;;5099797;28;20031;-79
2024/03/13 02:53:09;;;;;;;1.48;0.60;;;9.80;88.80;;;;;;5099633;28;20088;-79
2024/03/13 02:55:36;;;;;;;2.22;1.75;;;9.80;87.80;;;;;;5098660;28;20035;-78
2024/03/13 02:58:02;;;;;;;3.33;0.85;;;9.80;89.00;;;;;;5099441;28;20043;-78
2024/03/13 03:00:28;;;;;;;1.25;0.50;;;9.80;88.60;;;;;;5099078;28;20050;-78
2024/03/13 03:02:57;;;;;;;1.45;0.82;;;9.90;88.00;;;;;;5099315;28;20026;-79
2024/03/13 03:05:25;;;;;;;5.03;0.70;;;9.80;88.30;;;;;;5099125;28;20401;-79
2024/03/13 03:07:51;;;;;;;1.23;0.60;;;9.80;88.60;;;;;;5098273;28;20031;-78
2024/03/13 03:10:17;;;;;;;0.80;0.50;;;9.80;88.00;;;;;;5100318;28;20491;-78
2024/03/13 03:12:43;;;;;;;1.48;0.68;;;9.80;88.30;;;;;;5099246;28;20031;-78
2024/03/13 03:15:10;;;;;;;2.05;0.90;;;9.80;89.50;;;;;;5098194;28;20501;-78
2024/03/13 03:17:36;;;;;;;1.20;0.40;;;9.70;88.20;;;;;;5098682;28;20055;-78
2024/03/13 03:20:01;;;;;;;0.43;0.17;;;9.70;88.60;;;;;;5099193;28;20042;-80
2024/03/13 03:22:27;;;;;;;2.55;0.68;;;9.80;88.30;;;;;;5097883;28;20036;-80
2024/03/13 03:24:55;;;;;;;1.05;0.50;;;9.80;88.30;;;;;;5099195;28;20093;-80
2024/03/13 03:27:21;;;;;;;1.27;0.55;;;9.80;88.30;;;;;;5098337;28;20031;-80
2024/03/13 03:29:47;;;;;;;2.70;0.40;;;9.70;88.90;;;;;;5098031;28;20127;-80
2024/03/13 03:32:12;;;;;;;3.00;0.50;;;9.70;88.40;;;;;;5099533;28;20055;-80
2024/03/13 03:34:42;;;;;;;1.33;0.47;;;9.70;89.00;;;;;;5098673;28;20027;-80
2024/03/13 03:37:07;;;;;;;1.73;0.70;;;9.70;88.70;;;;;;5098544;28;20498;-80
2024/03/13 03:39:39;;;;;;;0.93;0.35;;;9.70;89.10;;;;;;5097614;28;20130;-80
2024/03/13 03:42:06;;;;;;;2.45;0.60;;;9.70;88.90;;;;;;5099215;28;20481;-80
2024/03/13 03:44:32;;;;;;;1.10;0.50;;;9.70;88.80;;;;;;5098518;28;20024;-80
2024/03/13 03:47:01;;;;;;;1.33;0.45;;;9.70;88.80;;;;;;5098415;28;20393;-81
2024/03/13 03:49:27;;;;;;;1.77;0.65;;;9.70;89.40;;;;;;5100765;28;20605;-79
2024/03/13 03:51:53;;;;;;;0.77;0.40;;;9.70;89.90;;;;;;5102722;28;20109;-80
2024/03/13 03:54:21;;;;;;;1.13;0.50;;;9.60;89.80;;;;;;5102712;28;20023;-80
2024/03/13 03:56:47;;;;;;;1.95;0.60;;;9.60;89.70;;;;;;5101223;28;20107;-80
2024/03/13 03:59:13;;;;;;;1.55;0.70;;;9.60;89.10;;;;;;5103057;28;20051;-80
2024/03/13 04:01:41;;;;;;;1.25;0.57;;;9.60;89.60;;;;;;5099489;28;20034;-80
2024/03/13 04:04:07;;;;;;;0.95;0.40;;;9.60;89.80;;;;;;5095832;28;20032;-80
2024/03/13 04:06:33;;;;;;;2.00;0.65;;;9.60;89.20;;;;;;5096651;27;20035;-80
2024/03/13 04:08:59;;;;;;;0.45;0.30;;;9.60;90.10;;;;;;5095663;28;20638;-80
2024/03/13 04:11:24;;;;;;;2.05;0.80;;;9.50;90.70;;;;;;5097861;27;20643;-80
2024/03/13 04:13:50;;;;;;;1.88;0.60;;;9.40;90.70;;;;;;5097306;27;20424;-80
2024/03/13 04:16:16;;;;;;;2.30;0.60;;;9.30;90.30;;;;;;5097277;28;20393;-80
2024/03/13 04:18:45;;;;;;;1.45;0.40;;;9.40;90.70;;;;;;5091975;28;20073;-80
2024/03/13 04:21:12;;;;;;;0.77;0.30;;;9.40;90.40;;;;;;5095251;28;20034;-78
2024/03/13 04:23:38;;;;;;;1.83;0.50;;;9.40;90.30;;;;;;5095608;28;20210;-78
2024/03/13 04:26:05;;;;;;;1.50;0.50;;;9.40;89.90;;;;;;5095224;28;20630;-78
2024/03/13 04:28:30;;;;;;;1.70;0.55;;;9.30;90.70;;;;;;5095185;28;20084;-78
2024/03/13 04:30:57;;;;;;;2.85;0.60;;;9.30;90.90;;;;;;5096655;28;20027;-78
2024/03/13 04:33:23;;;;;;;1.02;0.40;;;9.30;90.20;;;;;;5095687;28;20059;-78
2024/03/13 04:35:48;;;;;;;2.25;0.50;;;9.40;90.40;;;;;;5093937;28;20122;-78
2024/03/13 04:38:15;;;;;;;1.50;0.50;;;9.30;91.20;;;;;;5095351;28;20035;-78
2024/03/13 04:40:42;;;;;;;0.63;0.30;;;9.20;91.80;;;;;;5094430;28;20055;-78
2024/03/13 04:43:08;;;;;;;1.45;0.57;;;9.10;92.90;;;;;;5094871;28;20035;-78
2024/03/13 04:45:36;;;;;;;0.85;0.45;;;9.00;92.40;;;;;;5094598;28;20026;-78
2024/03/13 04:48:02;;;;;;;1.75;0.40;;;8.90;92.50;;;;;;5093870;28;20134;-79
2024/03/13 04:50:30;;;;;;;0.82;0.30;;;8.80;92.60;;;;;;5093117;28;20032;-78
2024/03/13 04:52:56;;;;;;;1.02;0.50;;;8.80;92.80;;;;;;5094159;28;20023;-78
2024/03/13 04:55:21;;;;;;;1.08;0.40;;;8.90;92.20;;;;;;5095131;28;20038;-78
2024/03/13 04:57:47;;;;;;;2.17;0.47;;;8.80;92.40;;;;;;5094721;28;20031;-81
2024/03/13 05:00:14;;;;;;;0.85;0.20;;;8.90;91.60;;;;;;5092757;28;20048;-80
2024/03/13 05:02:40;;;;;;;1.05;0.45;;;9.00;91.30;;;;;;5094398;28;20063;-80
2024/03/13 05:05:09;;;;;;;1.38;0.70;;;9.00;91.40;;;;;;5092551;28;20449;-80
2024/03/13 05:07:35;;;;;;;1.90;0.30;;;8.90;92.00;;;;;;5094793;28;20031;-81
2024/03/13 05:10:01;;;;;;;0.85;0.40;;;9.10;91.20;;;;;;5092762;28;20032;-80
2024/03/13 05:12:32;;;;;;;1.98;0.57;;;9.00;91.70;;;;;;5093661;28;20831;-80
2024/03/13 05:14:58;;;;;;;1.90;0.43;;;8.90;92.10;;;;;;5094282;28;20023;-81
2024/03/13 05:17:24;;;;;;;1.75;0.30;;;8.80;92.40;;;;;;5093749;28;20493;-80
2024/03/13 05:19:49;;;;;;;0.88;0.38;;;8.80;91.70;;;;;;5092859;28;20413;-81
2024/03/13 05:22:15;;;;;;;1.50;0.52;;;9.00;91.30;;;;;;5093910;28;20094;-81
2024/03/13 05:24:41;;;;;;;1.05;0.32;;;9.00;91.40;;;;;;5093795;28;20107;-80
2024/03/13 05:27:07;;;;;;;1.05;0.40;;;8.90;91.70;;;;;;5092944;28;20053;-80
2024/03/13 05:29:33;;;;;;;1.83;0.60;;;8.90;91.70;;;;;;5093475;28;20077;-80
2024/03/13 05:32:07;;;;;;;0.50;0.30;;;8.80;91.90;;;;;;5093376;28;20114;-80
2024/03/13 05:34:32;;;;;;;1.25;0.30;;;8.70;92.60;;;;;;5093185;28;20043;-80
2024/03/13 05:37:00;;;;;;;0.90;0.32;;;8.80;92.20;;;;;;5093310;28;20116;-80
2024/03/13 05:39:25;;;;;;;4.95;0.40;;;8.70;92.70;;;;;;5093122;28;20043;-80
2024/03/13 05:41:51;;;;;;;2.78;0.40;;;8.70;92.50;;;;;;5092605;28;20042;-80
2024/03/13 05:44:17;;;;;;;0.80;0.13;;;8.70;92.50;;;;;;5092972;28;20040;-80
2024/03/13 05:46:43;;;;;;;4.30;2.22;;;8.70;92.50;;;;;;5093225;28;20031;-80
2024/03/13 05:49:11;;;;;;;2.75;1.30;;;8.80;92.40;;;;;;5092966;28;20669;-80
2024/03/13 05:51:36;;;;;;;3.28;0.85;;;8.90;93.30;;;;;;5093324;28;20027;-80
2024/03/13 05:54:02;;;;;;;1.15;0.50;;;8.70;93.70;;;;;;5093466;28;20032;-80
2024/03/13 05:56:28;;;;;;;1.73;0.85;;;8.70;93.50;;;;;;5093667;28;21256;-80
2024/03/13 05:58:53;;;;;;;0.85;0.40;;;8.70;92.80;;;;;;5092497;28;20485;-80
2024/03/13 06:01:26;;;;;;;1.08;0.40;;;8.80;92.60;;;;;;5091812;28;20040;-80
2024/03/13 06:03:53;;;;;;;2.88;0.70;;;8.80;92.70;;;;;;5092285;28;20652;-80
2024/03/13 06:06:22;;;;;;;1.58;0.55;;;8.70;93.30;;;;;;5093039;28;20040;-80
2024/03/13 06:08:48;;;;;;;1.80;0.60;;;8.60;93.30;;;;;;5092671;28;20428;-80
2024/03/13 06:11:14;;;;;;;1.45;0.40;;;8.80;92.80;;;;;;5090900;28;20107;-80
2024/03/13 06:13:40;;;;;;;3.58;0.50;;;8.80;93.50;;;;;;5092742;28;20114;-80
2024/03/13 06:16:09;;;;;;;1.75;0.70;;;9.00;92.00;;;;;;5093031;28;20047;-80
2024/03/13 06:18:35;;;;;;;2.00;0.70;;;9.00;93.00;;;;;;5092204;28;20039;-80
2024/03/13 06:21:03;;;;;;;2.05;0.60;;;9.00;92.90;;;;;;5095271;28;20399;-80
2024/03/13 06:23:28;;;;;;;1.85;0.75;;;8.90;93.10;;;;;;5097370;28;20034;-82
2024/03/13 06:25:57;;;;;;;1.95;0.93;;;8.80;93.40;;;;;;5097328;28;20024;-80
2024/03/13 06:31:07;;;;;;;2.38;1.33;;;9.00;93.00;;;;;;5092847;28;20035;-81
2024/03/13 06:33:32;;;;;;;2.38;0.70;;;9.00;93.50;;;;;;5091880;28;20028;-80
2024/03/13 06:35:58;;;;;;;2.25;0.60;;;8.80;93.90;;;;;;5092472;28;20413;-80
2024/03/13 06:38:24;;;;;;;3.05;0.80;;;8.90;93.30;;;;;;5092377;28;20067;-81
2024/03/13 06:40:50;;;;;;;1.88;0.90;;;8.90;93.80;;;;;;5092322;28;20024;-80
2024/03/13 06:43:16;;;;;;;2.53;1.00;;;8.90;94.10;;;;;;5092627;28;20102;-80
2024/03/13 06:45:45;;;;;;;3.50;1.15;;;8.90;93.80;;;;;;5091029;28;20363;-81
2024/03/13 06:48:15;;;;;;;2.15;0.98;;;9.00;94.30;;;;;;5092875;28;20028;-80
2024/03/13 06:50:41;;;;;;;2.15;1.00;;;9.00;94.70;;;;;;5092726;28;20366;-80
2024/03/13 06:53:08;;;;;;;1.23;0.80;;;9.00;94.40;;;;;;5091629;28;20031;-80
2024/03/13 06:55:34;;;;;;;1.42;0.70;;;9.10;94.30;;;;;;5092474;28;20024;-80
2024/03/13 06:58:00;;;;;;;2.38;0.80;;;9.20;93.80;;;;;;5092896;28;20669;-81
2024/03/13 07:00:27;;;;;;;3.97;0.80;;;9.30;93.80;;;;;;5091950;28;20602;-80
2024/03/13 07:02:57;;;;;;;3.97;0.88;;;9.30;94.80;;;;;;5090740;28;20085;-80
2024/03/13 07:05:23;;;;;;;4.95;1.00;;;9.30;94.70;;;;;;5091633;28;20055;-80
2024/03/13 07:07:49;;;;;;;3.63;2.22;;;9.20;94.80;;;;;;5091660;28;20410;-80
2024/03/13 07:10:15;;;;;;;3.42;1.50;;;9.20;94.70;;;;;;5091290;28;20408;-80
2024/03/13 07:12:41;;;;;;;2.05;1.10;;;9.00;94.80;;;;;;5092640;28;20140;-81
2024/03/13 07:15:10;;;;;;;1.98;1.05;;;9.20;94.80;;;;;;5090825;28;20613;-80
2024/03/13 07:17:36;;;;;;;3.80;1.23;;;9.30;96.00;;;;;;5091438;28;20056;-81
2024/03/13 07:20:03;;;;;;;3.03;0.90;;;9.30;95.70;;;;;;5090927;28;20130;-80
2024/03/13 07:22:30;;;;;;;3.03;1.00;;;9.40;95.20;;;;;;5091910;28;20134;-80
2024/03/13 07:24:56;;;;;;;2.55;0.90;;;9.50;94.70;;;;;;5094787;28;20055;-81
2024/03/13 07:27:21;;;;;;;2.83;0.95;;;9.50;94.60;;;;;;5095774;28;20663;-80
2024/03/13 07:29:47;;;;;;;2.10;0.65;;;9.50;95.30;;;;;;5095744;28;20054;-80
2024/03/13 07:32:14;;;;;;;3.03;0.75;;;9.60;93.70;;;;;;5095468;28;20604;-80
2024/03/13 07:34:41;;;;;;;1.17;0.50;;;9.60;93.60;;;;;;5094912;28;20054;-80
2024/03/13 07:37:07;;;;;;;3.35;0.70;;;9.60;93.40;;;;;;5098656;28;20032;-80
2024/03/13 07:39:34;;;;;;;1.40;0.70;;;9.70;93.30;;;;;;5104376;28;20035;-82
2024/03/13 07:41:59;;;;;;;2.33;0.77;;;9.60;93.40;;;;;;5103266;28;20088;-80
2024/03/13 07:44:25;;;;;;;2.08;0.63;;;9.60;92.70;;;;;;5106476;28;20043;-81
2024/03/13 07:46:51;;;;;;;2.05;0.60;;;9.60;92.30;;;;;;5099794;28;20020;-82
2024/03/13 07:49:17;;;;;;;3.13;0.57;;;9.80;92.10;;;;;;5094933;28;20036;-81
2024/03/13 07:51:45;;;;;;;4.70;0.98;;;9.80;92.10;;;;;;5096387;28;21984;-81
2024/03/13 07:54:10;;;;;;;0.60;0.38;;;9.90;92.30;;;;;;5098304;28;20062;-83
2024/03/13 07:56:37;;;;;;;1.38;0.45;;;10.00;92.90;;;;;;5097352;28;20528;-81
2024/03/13 07:59:06;;;;;;;0.82;0.40;;;10.00;92.30;;;;;;5097258;28;21305;-80
2024/03/13 08:01:41;;;;;;;0.77;0.50;;;10.10;93.10;;;;;;5096153;28;21374;-80
2024/03/13 08:04:08;;;;;;;1.60;0.80;;;10.20;93.50;;;;;;5096539;28;20031;-81
2024/03/13 08:06:36;;;;;;;3.15;1.02;;;10.20;94.20;;;;;;5096351;28;20431;-81
2024/03/13 08:09:02;;;;;;;3.15;1.23;;;10.10;94.40;;;;;;5095206;28;20028;-81
2024/03/13 08:11:31;;;;;;;2.50;0.82;;;10.10;94.30;;;;;;5095460;28;20466;-82
2024/03/13 08:13:57;;;;;;;0.77;0.50;;;10.10;93.90;;;;;;5090257;28;20109;-81
2024/03/13 08:16:24;;;;;;;2.20;0.70;;;10.10;93.00;;;;;;5094162;28;20048;-80
2024/03/13 08:18:49;;;;;;;1.08;0.57;;;10.20;93.20;;;;;;5094585;28;20676;-80
2024/03/13 08:21:16;;;;;;;1.02;0.57;;;10.30;93.50;;;;;;5094951;28;20458;-83
2024/03/13 08:23:44;;;;;;;1.48;0.60;;;10.40;93.50;;;;;;5094611;28;20683;-83
2024/03/13 08:26:10;;;;;;;1.33;0.68;;;10.50;93.70;;;;;;5094989;28;20032;-83
2024/03/13 08:28:37;;;;;;;1.40;0.60;;;10.50;93.90;;;;;;5094513;28;20020;-83
2024/03/13 08:31:05;;;;;;;1.75;0.70;;;10.50;93.70;;;;;;5095844;28;20023;-83
2024/03/13 08:33:31;;;;;;;2.67;1.02;;;10.40;94.20;;;;;;5093848;28;20039;-83
2024/03/13 08:35:58;;;;;;;1.42;0.60;;;10.40;93.10;;;;;;5093881;28;20035;-83
2024/03/13 08:38:23;;;;;;;2.15;0.82;;;10.40;92.80;;;;;;5093836;28;20042;-83
2024/03/13 08:40:49;;;;;;;1.42;0.55;;;10.30;92.90;;;;;;5095491;28;20031;-83
2024/03/13 08:43:19;;;;;;;0.93;0.43;;;10.40;92.80;;;;;;5094246;27;20631;-83
2024/03/13 08:45:45;;;;;;;1.50;0.60;;;10.50;92.70;;;;;;5093810;28;20024;-83
2024/03/13 08:48:11;;;;;;;2.08;0.85;;;10.50;92.40;;;;;;5094912;28;20676;-82
2024/03/13 08:50:37;;;;;;;5.07;0.52;;;10.60;93.00;;;;;;5093416;28;20110;-83
2024/03/13 08:53:04;;;;;;;1.80;0.70;;;10.60;92.60;;;;;;5094471;28;20118;-83
2024/03/13 08:55:34;;;;;;;1.00;0.60;;;10.60;92.50;;;;;;5091739;28;20039;-83
2024/03/13 08:58:03;;;;;;;2.65;0.88;;;10.70;92.80;;;;;;5094429;28;20027;-82
2024/03/13 09:00:29;;;;;;;3.88;1.33;;;10.90;93.20;;;;;;5096029;28;20071;-83
2024/03/13 09:02:57;;;;;;;2.40;1.00;;;11.00;93.10;;;;;;5097231;28;20176;-83
2024/03/13 09:05:23;;;;;;;1.15;0.80;;;11.10;93.10;;;;;;5097277;28;20102;-82
2024/03/13 09:07:49;;;;;;;1.60;0.70;;;11.10;92.70;;;;;;5096871;28;21128;-82
2024/03/13 09:10:16;;;;;;;1.80;0.77;;;11.00;92.30;;;;;;5079966;28;20031;-82
2024/03/13 09:12:42;;;;;;;1.58;0.70;;;11.00;93.00;;;;;;5097380;28;20023;-82
2024/03/13 09:15:09;;;;;;;1.25;0.50;;;11.00;93.10;;;;;;5097374;28;20656;-82
2024/03/13 09:17:35;;;;;;;1.75;0.75;;;11.00;93.00;;;;;;5096431;28;20090;-83
2024/03/13 09:20:01;;;;;;;0.98;0.60;;;11.00;92.80;;;;;;5096009;28;20146;-82
2024/03/13 09:22:27;;;;;;;1.75;0.63;;;11.00;92.30;;;;;;5096977;28;20067;-82
2024/03/13 09:24:53;;;;;;;2.20;0.70;;;11.10;92.10;;;;;;5095577;28;20474;-83
2024/03/13 09:27:19;;;;;;;2.70;0.57;;;11.20;92.10;;;;;;5096125;28;20681;-82
2024/03/13 09:29:45;;;;;;;1.48;0.68;;;11.20;93.00;;;;;;5096543;28;20107;-82
2024/03/13 09:32:11;;;;;;;2.20;1.05;;;11.30;91.80;;;;;;5096629;28;20034;-82
2024/03/13 09:34:37;;;;;;;3.35;0.60;;;11.30;92.00;;;;;;5096402;28;20027;-83
2024/03/13 09:37:07;;;;;;;2.58;0.63;;;11.50;91.60;;;;;;5096602;28;20583;-83
2024/03/13 09:39:36;;;;;;;2.63;0.40;;;11.50;91.60;;;;;;5096032;28;20078;-83
2024/03/13 09:42:06;;;;;;;1.75;0.50;;;11.70;91.60;;;;;;5096165;28;20051;-81
2024/03/13 09:44:32;;;;;;;1.63;0.60;;;12.00;90.60;;;;;;5095682;28;20109;-81
2024/03/13 09:46:59;;;;;;;4.50;0.88;;;12.10;91.00;;;;;;5092626;28;20229;-83
2024/03/13 09:49:27;;;;;;;1.50;0.60;;;12.10;92.50;;;;;;5092262;28;20051;-85
2024/03/13 09:51:53;;;;;;;1.10;0.60;;;12.00;91.90;;;;;;5092873;28;20028;-83
2024/03/13 09:54:20;;;;;;;2.42;0.88;;;11.90;91.50;;;;;;5097312;28;20478;-84
2024/03/13 09:56:46;;;;;;;2.17;0.70;;;11.90;92.00;;;;;;5097174;28;20479;-84
2024/03/13 09:59:12;;;;;;;3.17;0.60;;;11.90;91.50;;;;;;5096431;28;20154;-84
2024/03/13 10:01:51;;;;;;;1.13;0.60;;;12.00;91.30;;;;;;5096949;28;20030;-84
2024/03/13 10:04:26;;;;;;;2.40;0.95;;;12.10;91.00;;;;;;5096505;28;20606;-85
2024/03/13 10:06:56;;;;;;;2.08;0.70;;;12.00;90.70;;;;;;5096467;28;20424;-85
2024/03/13 10:09:31;;;;;;;1.50;0.52;;;12.10;90.40;;;;;;5097023;28;20499;-81
2024/03/13 10:12:00;;;;;;;1.20;0.47;;;12.30;90.60;;;;;;5097686;28;20054;-81
2024/03/13 10:14:26;;;;;;;0.90;0.38;;;12.30;90.20;;;;;;5096646;28;20485;-82
2024/03/13 10:16:53;;;;;;;1.60;0.63;;;12.40;90.10;;;;;;5096352;28;20059;-83
2024/03/13 10:19:27;;;;;;;1.92;0.70;;;12.70;91.10;;;;;;5097169;28;20444;-83
2024/03/13 10:21:54;;;;;;;4.13;0.60;;;13.00;91.30;;;;;;5096798;28;20035;-81
2024/03/13 10:24:22;;;;;;;1.40;0.50;;;13.00;91.50;;;;;;5096852;28;20269;-82
2024/03/13 10:26:50;;;;;;;1.20;0.60;;;13.00;90.70;;;;;;5097254;27;20051;-82
2024/03/13 10:29:17;;;;;;;1.23;0.47;;;13.00;90.70;;;;;;5097356;28;20599;-82
2024/03/13 10:31:44;;;;;;;1.67;0.60;;;13.10;90.60;;;;;;5097239;28;20089;-80
2024/03/13 10:34:10;;;;;;;2.90;1.20;;;13.20;90.20;;;;;;5095827;28;20027;-82
2024/03/13 10:36:44;;;;;;;1.50;0.47;;;13.00;87.70;;;;;;5095856;28;20043;-85
2024/03/13 10:39:11;;;;;;;;;;;13.30;88.80;;;;;;5095271;28;20043;-83
2024/03/13 10:41:37;;;;;;;2.05;1.00;;;13.70;88.20;;;;;;5095042;28;20433;-84
2024/03/13 10:44:03;;;;;;;1.67;0.73;;;14.10;90.40;;;;;;5095757;28;20672;-83
2024/03/13 10:46:32;;;;;;;1.63;0.82;;;14.10;88.10;;;;;;5096661;28;20949;-83
2024/03/13 10:48:59;;;;;;;1.83;0.80;;;14.10;90.00;;;;;;5096042;28;20394;-79
2024/03/13 10:51:30;;;;;;;1.05;0.52;;;13.90;88.10;;;;;;5094933;28;20116;-80
2024/03/13 10:53:55;;;;;;;1.48;0.70;;;14.10;90.00;;;;;;5093992;28;20040;-80
2024/03/13 10:56:21;;;;;;;0.85;0.40;;;14.10;87.90;;;;;;5095267;28;20024;-80
2024/03/13 10:58:47;;;;;;;1.15;0.52;;;13.90;87.70;;;;;;5096757;28;20031;-80
2024/03/13 11:01:17;;;;;;;2.05;0.88;;;13.90;87.70;;;;;;5098374;28;20095;-79
2024/03/13 11:03:48;;;;;;;2.33;0.60;;;14.20;89.30;;;;;;5098952;28;20027;-79
2024/03/13 11:06:15;;;;;;;1.23;0.28;;;14.40;89.90;;;;;;5098881;27;20122;-80
2024/03/13 11:08:43;;;;;;;1.27;0.60;;;14.30;87.50;;;;;;5098265;28;20039;-80
2024/03/13 11:11:13;;;;;;;2.40;0.63;;;14.40;89.00;;;;;;5098999;28;20099;-80
2024/03/13 11:13:50;;;;;;;0.77;0.38;;;14.50;89.50;;;;;;5098685;28;20023;-80
2024/03/13 11:16:17;;;;;;;1.27;0.40;;;14.50;87.00;;;;;;5098979;28;20047;-79
2024/03/13 11:18:46;;;;;;;0.82;0.47;;;14.80;89.20;;;;;;5099639;28;20031;-80
2024/03/13 11:21:19;;;;;;;5.28;2.85;;;14.70;87.50;;;;;;5099978;28;20080;-79
2024/03/13 11:23:51;;;;;;;2.63;1.60;;;14.70;86.70;;;;;;5097966;28;20040;-80
2024/03/13 11:26:21;;;;;;;1.10;0.40;;;14.70;87.40;;;;;;5098969;28;20067;-80
2024/03/13 11:28:51;;;;;;;3.15;0.80;;;14.90;86.70;;;;;;5099139;28;20024;-80
2024/03/13 11:31:16;;;;;;;1.92;0.30;;;14.90;85.70;;;;;;5099592;28;20122;-79
2024/03/13 11:33:42;;;;;;;0.75;0.30;;;14.80;84.70;;;;;;5099145;28;20475;-79
2024/03/13 11:36:10;;;;;;;1.27;0.40;;;14.60;83.50;;;;;;5097678;28;20039;-79
2024/03/13 11:38:37;;;;;;;1.42;0.65;;;14.70;84.00;;;;;;5099107;28;20058;-79
2024/03/13 11:41:05;;;;;;;1.17;0.32;;;14.90;86.80;;;;;;5097938;28;20031;-79
2024/03/13 11:43:32;;;;;;;0.85;0.40;;;15.30;85.10;;;;;;5098117;28;20028;-80
2024/03/13 11:45:59;;;;;;;0.85;0.28;;;15.30;85.80;;;;;;5098301;28;20028;-79
2024/03/13 11:48:25;;;;;;;0.65;0.30;;;15.50;87.70;;;;;;5098799;28;20027;-80
2024/03/13 11:51:10;;;;;;;2.20;0.55;;;15.60;86.20;;;;;;5097505;28;20507;-80
2024/03/13 11:53:41;;;;;;;1.13;0.40;;;15.50;85.40;;;;;;5098609;28;20024;-79
2024/03/13 11:56:13;;;;;;;5.80;1.33;;;15.20;84.20;;;;;;5098567;28;20027;-80
2024/03/13 11:58:40;;;;;;;2.15;0.90;;;15.30;86.80;;;;;;5097906;28;20051;-80
2024/03/13 12:01:12;;;;;;;1.42;0.47;;;15.40;84.30;;;;;;5097521;28;20088;-80
2024/03/13 12:03:40;;;;;;;1.73;0.82;;;15.30;84.40;;;;;;5098179;28;20026;-79
2024/03/13 12:06:25;;;;;;;2.55;0.80;;;15.30;84.40;;;;;;5098935;28;20586;-80
2024/03/13 12:08:54;;;;;;;1.50;0.65;;;15.50;84.00;;;;;;5097599;28;20035;-80
2024/03/13 12:11:21;;;;;;;2.03;0.68;;;15.60;83.40;;;;;;5098602;28;20146;-80
2024/03/13 12:13:47;;;;;;;2.05;0.43;;;15.40;83.10;;;;;;5098432;28;20040;-80
2024/03/13 12:16:14;;;;;;;0.55;0.30;;;15.70;85.10;;;;;;5097329;28;20051;-79
2024/03/13 12:18:49;;;;;;;8.45;0.82;;;15.70;84.10;;;;;;5098671;28;20027;-80
2024/03/13 12:21:16;;;;;;;0.20;0.13;;;16.00;84.70;;;;;;5097724;28;20024;-80
2024/03/13 12:23:42;;;;;;;0.55;0.22;;;16.00;82.40;;;;;;5097385;28;20609;-81
2024/03/13 12:26:08;;;;;;;0.32;0.10;;;16.20;83.50;;;;;;5097279;28;20127;-80
2024/03/13 12:28:33;;;;;;;0.75;0.30;;;16.10;82.10;;;;;;5097748;28;20032;-81
2024/03/13 12:31:00;;;;;;;0.50;0.10;;;16.20;82.30;;;;;;5096762;28;20035;-79
2024/03/13 12:33:26;;;;;;;0.20;0.10;;;16.30;81.50;;;;;;5093175;28;20850;-79
2024/03/13 12:35:55;;;;;;;1.13;0.40;;;16.40;81.80;;;;;;5094213;28;20028;-79
2024/03/13 12:38:39;;;;;;;0.32;0.30;;;16.60;80.40;;;;;;5093607;28;20700;-78
2024/03/13 12:41:07;;;;;;;0.70;0.32;;;16.50;79.50;;;;;;5094060;28;20649;-78
2024/03/13 12:43:33;;;;;;;3.60;0.30;;;16.50;80.40;;;;;;5093425;28;20039;-79
2024/03/13 12:46:02;;;;;;;0.85;0.20;;;16.50;79.80;;;;;;5094373;28;20031;-80
2024/03/13 12:48:31;;;;;;;0.80;0.30;;;16.50;80.40;;;;;;5094795;28;20019;-79
2024/03/13 12:51:01;;;;;;;1.38;0.47;;;16.40;79.50;;;;;;5095947;28;20031;-79
2024/03/13 12:53:29;;;;;;;0.68;0.30;;;16.40;80.70;;;;;;5096113;28;20096;-79
2024/03/13 12:55:55;;;;;;;1.38;0.30;;;16.40;80.10;;;;;;5093668;28;20088;-81
2024/03/13 12:58:22;;;;;;;0.03;0.03;;;16.50;79.10;;;;;;5093977;28;20039;-81
2024/03/13 13:00:48;;;;;;;0.82;0.30;;;16.40;79.90;;;;;;5094738;28;20024;-81
2024/03/13 13:03:14;;;;;;;0.75;0.20;;;16.60;82.10;;;;;;5093247;28;21400;-81
2024/03/13 13:05:41;;;;;;;0.55;0.20;;;16.80;83.30;;;;;;5092382;28;20028;-80
2024/03/13 13:08:10;;;;;;;0.75;0.30;;;16.80;80.90;;;;;;5094186;28;20408;-80
2024/03/13 13:10:37;;;;;;;1.98;0.30;;;16.70;78.70;;;;;;5093618;28;20031;-81
2024/03/13 13:13:04;;;;;;;1.10;0.38;;;16.90;80.70;;;;;;5093780;28;20042;-81